Latest Weather Observations for Birdsville

IDQ60801

Issued at 9:42 pm EST Friday 26 April 2019 (issued every 10 minutes, with the page automatically refreshed every 10 minutes)

About weather observations | Map of weather stations | Latest weather observations for QLD | Other Formats
Station Details ID: 038026 Name: BIRDSVILLE AIRPORT Lat: -25.90 Lon: 139.35 Height: 46.6 m
Data from the previous 72 hours. | See also: Recent months at Birdsville
Date/Time
EST
Temp
°C
App
Temp
°C
Dew
Point
°C
Rel
Hum
%
Delta-T
°C
Wind Press
QNH
hPa
Press
MSL
hPa
Rain since
9am
mm
Dir  Spd
km/h
Gust
km/h
Spd
kts
Gust
kts
26/09:30pm 23.6 18.0 10.3 43 7.3 S 30 39 16 21 1019.6 1019.4 0.0
26/09:00pm 24.1 19.2 11.4 45 7.1 S 28 39 15 21 1019.4 1019.2 0.0
26/08:30pm 24.0 21.7 14.1 54 5.8 S 19 24 10 13 1019.0 1018.8 0.0
26/08:00pm 24.5 21.9 13.7 51 6.3 S 20 24 11 13 1018.5 1018.3 0.0
26/07:30pm 25.1 22.7 13.9 49 6.6 S 19 22 10 12 1018.1 1017.9 0.0
26/07:00pm 26.0 23.1 14.1 47 7.1 SSE 22 28 12 15 1017.6 1017.3 0.0
26/06:30pm 26.7 23.2 14.5 47 7.3 SSE 26 35 14 19 1017.2 1016.9 0.0
26/06:00pm 27.4 22.7 14.4 45 7.8 S 32 41 17 22 1016.9 1016.6 0.0
26/05:30pm 28.0 23.9 15.0 45 7.9 SSE 30 41 16 22 1016.6 1016.3 0.0
26/05:00pm 27.8 24.0 14.8 45 7.9 SSE 28 37 15 20 1016.4 1016.1 0.0
26/04:30pm 28.7 24.0 14.9 43 8.4 SSE 33 43 18 23 1016.1 1015.8 0.0
26/04:00pm 28.8 24.5 15.3 43 8.3 SSE 32 44 17 24 1016.0 1015.7 0.0
26/03:30pm 28.8 24.6 15.7 45 8.1 S 32 46 17 25 1015.7 1015.5 0.0
26/03:00pm 28.9 24.3 15.1 43 8.4 S 33 44 18 24 1015.7 1015.5 0.0
26/02:30pm 28.7 24.6 15.9 45 7.9 SSE 32 43 17 23 1016.1 1015.8 0.0
26/02:00pm 29.2 26.2 16.7 46 7.8 SSE 28 39 15 21 1016.4 1016.1 0.0
26/01:30pm 29.1 25.3 16.6 46 7.8 SSE 32 48 17 26 1016.6 1016.3 0.0
26/01:21pm 28.7 25.2 16.6 48 7.6 S 30 48 16 26 1016.7 1016.4 0.0
26/01:00pm 28.5 25.5 16.7 48 7.4 SSE 28 39 15 21 1017.1 1016.8 0.0
26/12:30pm 27.9 24.6 17.1 51 6.8 SSE 30 37 16 20 1017.7 1017.4 0.0
26/12:00pm 27.0 24.2 17.2 55 6.1 SSE 28 35 15 19 1018.0 1017.7 0.0
26/11:30am 26.8 24.8 17.3 56 6.0 SSE 24 30 13 16 1018.4 1018.2 0.0
26/11:00am 25.5 23.5 16.4 57 5.6 SSE 22 30 12 16 1018.8 1018.6 0.0
26/10:30am 25.2 23.6 16.6 59 5.3 SSE 20 26 11 14 1019.0 1018.8 0.0
26/10:00am 23.5 20.8 15.5 60 4.8 SSE 24 30 13 16 1019.1 1018.9 0.0
26/09:30am 22.8 19.9 15.1 62 4.6 SSE 24 30 13 16 1019.0 1018.8 0.0
26/09:00am 21.5 18.3 14.2 63 4.3 SSE 24 32 13 17 1018.8 1018.6 0.0
26/08:30am 20.5 17.9 13.9 66 3.8 SSE 20 26 11 14 1018.5 1018.3 0.0
26/08:00am 19.4 17.5 13.1 67 3.6 SSE 15 19 8 10 1018.2 1018.0 0.0
26/07:30am 18.6 16.2 12.8 69 3.3 S 17 20 9 11 1018.0 1017.7 0.0
26/07:00am 18.4 16.4 12.8 70 3.1 S 15 17 8 9 1017.6 1017.3 0.0
26/06:30am 18.8 16.4 12.8 68 3.4 S 17 20 9 11 1017.3 1017.0 0.0
26/06:00am 18.8 16.4 12.5 67 3.5 S 17 20 9 11 1017.2 1016.9 0.0
26/05:30am 19.1 16.7 12.6 66 3.6 S 17 20 9 11 1016.9 1016.6 0.0
26/05:00am 19.3 16.9 12.6 65 3.8 S 17 24 9 13 1016.9 1016.6 0.0
26/04:30am 19.8 16.8 12.6 63 4.1 S 20 26 11 14 1016.8 1016.5 0.0
26/04:00am 20.0 16.7 12.7 63 4.1 S 22 26 12 14 1016.7 1016.4 0.0
26/03:30am 20.2 17.3 12.9 63 4.1 S 20 26 11 14 1016.8 1016.5 0.0
26/03:00am 20.6 17.8 13.1 62 4.3 S 20 26 11 14 1017.1 1016.8 0.0
26/02:30am 21.2 18.5 13.4 61 4.5 S 20 26 11 14 1017.3 1017.0 0.0
26/02:00am 21.6 19.0 13.8 61 4.5 S 20 30 11 16 1017.4 1017.1 0.0
26/01:30am 21.6 18.5 14.5 64 4.2 S 24 28 13 15 1017.5 1017.2 0.0
26/01:00am 21.3 19.3 15.6 70 3.4 SSW 20 28 11 15 1017.7 1017.4 0.0
26/12:30am 19.8 18.3 15.4 76 2.6 SSW 17 20 9 11 1017.7 1017.4 0.0
26/12:00am 19.6 19.0 15.7 78 2.3 SW 13 15 7 8 1017.7 1017.4 0.0
 
Date/Time
EST
Temp
°C
App
Temp
°C
Dew
Point
°C
Rel
Hum
%
Delta-T
°C
Wind Press
QNH
hPa
Press
MSL
hPa
Rain since
9am
mm
Dir  Spd
km/h
Gust
km/h
Spd
kts
Gust
kts
25/11:30pm 20.2 19.5 15.4 74 2.8 SW 13 15 7 8 1017.7 1017.4 0.0
25/11:00pm 21.5 20.3 15.1 67 3.8 S 15 19 8 10 1017.8 1017.5 0.0
25/10:30pm 22.9 21.9 15.5 63 4.4 S 15 19 8 10 1017.8 1017.5 0.0
25/10:00pm 23.4 22.1 15.7 62 4.6 S 17 20 9 11 1017.7 1017.4 0.0
25/09:30pm 23.3 22.4 15.9 63 4.5 S 15 20 8 11 1017.8 1017.5 0.0
25/09:00pm 21.7 21.9 15.8 69 3.5 SSW 9 11 5 6 1017.5 1017.2 0.0
25/08:30pm 22.7 21.9 16.0 66 4.1 SSW 15 17 8 9 1017.2 1016.9 0.0
25/08:00pm 23.2 22.0 16.0 64 4.4 SSW 17 19 9 10 1016.9 1016.6 0.0
25/07:30pm 23.7 22.5 16.0 62 4.7 SSW 17 19 9 10 1016.6 1016.3 0.0
25/07:00pm 24.5 23.3 16.0 59 5.2 SSW 17 19 9 10 1016.4 1016.1 0.0
25/06:30pm 25.3 24.0 15.9 56 5.7 SSW 17 20 9 11 1016.2 1015.9 0.0
25/06:00pm 26.9 25.3 15.0 48 7.2 S 17 20 9 11 1015.9 1015.6 0.0
25/05:30pm 27.4 25.3 15.1 47 7.5 SSE 20 28 11 15 1015.7 1015.5 0.0
25/05:00pm 27.6 24.5 14.6 45 7.8 S 24 30 13 16 1015.5 1015.3 0.0
25/04:30pm 27.8 25.3 15.1 46 7.7 S 22 32 12 17 1015.5 1015.3 0.0
25/04:00pm 27.2 24.3 15.2 47 7.3 S 24 33 13 18 1015.4 1015.2 0.0
25/03:30pm 27.6 25.2 15.3 47 7.5 S 22 30 12 16 1015.6 1015.4 0.0
25/03:00pm 27.9 24.6 14.9 45 7.9 SSW 26 35 14 19 1015.5 1015.3 0.0
25/02:30pm 27.6 24.4 15.3 47 7.5 SSW 26 35 14 19 1016.1 1015.8 0.0
25/02:00pm 27.2 23.7 14.6 46 7.6 SSW 26 32 14 17 1016.6 1016.3 0.0
25/01:30pm 27.5 24.9 14.8 45 7.7 SSE 22 28 12 15 1017.1 1016.8 0.0
25/01:00pm 26.9 24.2 14.6 46 7.4 SSE 22 32 12 17 1017.5 1017.2 0.0
25/12:30pm 25.9 23.7 15.0 51 6.6 SSE 20 30 11 16 1018.1 1017.9 0.0
25/12:00pm 26.5 24.1 15.5 50 6.7 SE 22 30 12 16 1018.6 1018.4 0.0
25/11:30am 26.1 23.8 15.8 53 6.3 SE 22 30 12 16 1019.0 1018.8 0.0
25/11:00am 25.5 23.9 16.4 57 5.6 ESE 20 24 11 13 1019.2 1019.0 0.0
25/10:30am 24.0 22.3 16.3 62 4.7 SE 20 24 11 13 1019.5 1019.3 0.0
25/10:00am 22.8 21.2 15.9 65 4.2 SSE 19 24 10 13 1019.6 1019.4 0.0
25/09:30am 22.0 20.1 15.8 68 3.7 SE 20 28 11 15 1019.5 1019.3 0.0
25/09:00am 20.6 18.6 14.9 70 3.3 SE 19 22 10 12 1019.6 1019.4 0.0
25/08:30am 19.5 17.9 15.0 75 2.6 SSE 17 22 9 12 1019.4 1019.2 0.0
25/08:00am 18.1 16.2 14.2 78 2.2 SSE 17 22 9 12 1019.1 1018.9 0.0
25/07:30am 17.3 15.7 13.8 80 2.0 SSE 15 20 8 11 1018.9 1018.7 0.0
25/07:00am 17.4 15.9 14.1 81 1.9 SSE 15 20 8 11 1018.8 1018.6 0.0
25/06:30am 17.4 16.2 14.1 81 1.9 SSE 13 17 7 9 1018.8 1018.6 0.0
25/06:00am 17.1 16.7 14.0 82 1.8 S 9 13 5 7 1018.7 1018.5 0.0
25/05:30am 17.5 16.6 13.8 79 2.1 S 11 13 6 7 1018.5 1018.3 0.0
25/05:00am 18.0 17.2 14.1 78 2.2 S 11 13 6 7 1018.4 1018.2 0.0
25/04:30am 17.3 16.3 13.4 78 2.2 SW 11 13 6 7 1018.3 1018.1 0.0
25/04:00am 18.8 17.3 14.1 74 2.7 S 15 19 8 10 1018.2 1018.0 0.0
25/03:30am 18.8 17.3 14.1 74 2.7 S 15 19 8 10 1018.2 1018.0 0.0
25/03:00am 19.4 17.5 14.2 72 3.0 SSE 17 20 9 11 1018.1 1017.9 0.0
25/02:30am 19.2 17.2 14.0 72 3.0 SSE 17 20 9 11 1018.3 1018.1 0.0
25/02:00am 19.2 17.6 14.0 72 3.0 S 15 19 8 10 1018.7 1018.5 0.0
25/01:30am 19.5 18.0 14.3 72 3.0 S 15 20 8 11 1018.9 1018.7 0.0
25/01:00am 19.8 18.0 14.4 71 3.1 S 17 19 9 10 1019.1 1018.9 0.0
25/12:30am 20.0 18.3 14.6 71 3.2 S 17 20 9 11 1019.2 1019.0 0.0
25/12:00am 20.3 19.1 15.1 72 3.1 S 15 20 8 11 1019.5 1019.3 0.0
 
Date/Time
EST
Temp
°C
App
Temp
°C
Dew
Point
°C
Rel
Hum
%
Delta-T
°C
Wind Press
QNH
hPa
Press
MSL
hPa
Rain since
9am
mm
Dir  Spd
km/h
Gust
km/h
Spd
kts
Gust
kts
24/11:30pm 19.6 18.9 15.3 76 2.5 S 13 17 7 9 1019.7 1019.5 0.0
24/11:00pm 19.1 18.2 14.8 76 2.5 SSW 13 17 7 9 1019.9 1019.7 0.0
24/10:30pm 19.9 18.2 14.7 72 3.0 SSW 17 19 9 10 1019.9 1019.7 0.0
24/10:00pm 20.2 18.1 14.8 71 3.2 SSW 19 20 10 11 1019.9 1019.7 0.0
24/09:30pm 20.7 18.6 14.6 68 3.6 SSW 19 22 10 12 1019.9 1019.7 0.0
24/09:00pm 21.1 19.0 14.7 67 3.8 SSW 19 22 10 12 1019.7 1019.5 0.0
24/08:30pm 21.4 19.7 14.8 66 3.9 SSW 17 20 9 11 1019.6 1019.4 0.0
24/08:00pm 21.3 19.5 14.5 65 4.0 SSW 17 19 9 10 1019.5 1019.3 0.0
24/07:30pm 22.4 20.6 14.5 61 4.7 SSW 17 20 9 11 1018.9 1018.7 0.0
24/07:00pm 23.3 21.2 14.6 58 5.1 SSW 19 22 10 12 1018.8 1018.6 0.0
24/06:30pm 24.1 21.7 14.5 55 5.7 SSW 20 24 11 13 1018.5 1018.3 0.0
24/06:00pm 25.1 21.9 14.3 51 6.4 SSW 24 32 13 17 1018.2 1018.0 0.0
24/05:30pm 25.9 21.9 14.1 48 7.0 SSW 28 35 15 19 1018.1 1017.9 0.0
24/05:00pm 26.2 22.1 13.7 46 7.4 S 28 35 15 19 1017.9 1017.6 0.0
24/04:30pm 26.5 22.0 13.9 45 7.5 S 30 39 16 21 1017.9 1017.6 0.0
24/04:00pm 26.7 22.7 14.1 46 7.5 S 28 39 15 21 1018.1 1017.9 0.0
24/03:30pm 26.5 22.6 14.3 47 7.3 S 28 41 15 22 1018.2 1018.0 0.0
24/03:00pm 27.3 23.5 14.7 46 7.6 S 28 37 15 20 1018.4 1018.2 0.0
24/02:30pm 25.8 22.8 14.9 51 6.6 S 24 30 13 16 1018.9 1018.7 0.0
24/02:00pm 26.5 22.8 14.9 49 7.0 S 28 33 15 18 1019.3 1019.1 0.0
24/01:30pm 26.2 24.2 16.4 54 6.0 SSW 22 28 12 15 1019.7 1019.5 0.0
24/01:00pm 25.0 22.6 15.3 55 5.8 S 22 30 12 16 1020.2 1020.0 0.0
24/12:30pm 24.8 22.7 15.1 54 5.8 S 20 28 11 15 1020.7 1020.5 0.0
24/12:00pm 25.2 23.4 16.1 57 5.6 SSE 20 28 11 15 1021.3 1021.1 0.0
24/11:30am 24.2 22.7 16.2 61 4.9 SSE 19 24 10 13 1021.6 1021.4 0.0
24/11:00am 23.4 21.7 16.2 64 4.4 S 20 28 11 15 1022.0 1021.8 0.0
24/10:30am 23.0 20.9 16.1 65 4.2 SSE 22 30 12 16 1022.2 1022.0 0.0
24/10:00am 21.9 20.8 16.4 71 3.3 SSE 17 22 9 12 1022.1 1021.9 0.0
24/09:30am 21.0 19.8 16.2 74 2.9 SE 17 22 9 12 1022.0 1021.8 0.0
24/09:00am 19.9 19.3 15.7 77 2.5 SSE 13 17 7 9 1021.9 1021.7 0.0
24/08:30am 18.2 18.0 14.7 80 2.0 SW 9 11 5 6 1021.7 1021.5 0.0
24/08:00am 17.1 16.7 14.2 83 1.7 SW 9 15 5 8 1021.4 1021.2 0.0
24/07:30am 17.0 16.3 14.3 84 1.5 SSE 11 13 6 7 1021.0 1020.8 0.0
24/07:00am 16.5 16.2 14.3 87 1.3 SE 9 13 5 7 1020.7 1020.5 0.0
24/06:30am 16.9 15.8 14.2 84 1.5 SSE 13 19 7 10 1020.3 1020.1 0.0
24/06:00am 17.3 15.4 14.2 82 1.8 SSE 17 22 9 12 1019.9 1019.7 0.0
24/05:30am 17.2 15.1 13.7 80 2.0 SSE 17 24 9 13 1019.7 1019.5 0.0
24/05:00am 17.3 15.0 13.0 76 2.4 S 17 20 9 11 1019.4 1019.2 0.0
24/04:30am 17.9 15.2 12.8 72 2.9 SSE 19 24 10 13 1019.3 1019.1 0.0
24/04:00am 18.3 16.5 13.2 72 2.9 S 15 19 8 10 1019.4 1019.2 0.0
24/03:30am 17.0 15.5 14.1 83 1.7 SSW 15 15 8 8 1019.5 1019.3 0.0
24/03:00am 16.6 15.3 13.7 83 1.6 SW 13 13 7 7 1019.8 1019.6 0.0
24/02:30am 17.5 16.6 13.8 79 2.1 SSW 11 13 6 7 1020.1 1019.9 0.0
24/02:00am 19.0 17.2 14.5 75 2.6 S 17 20 9 11 1019.9 1019.7 0.0
24/01:30am 18.3 16.6 14.6 79 2.1 SSW 17 20 9 11 1019.9 1019.7 0.0
24/01:00am 18.1 16.8 13.8 76 2.4 SSW 13 15 7 8 1020.2 1020.0 0.0
24/12:30am 18.1 16.9 14.0 77 2.3 SSW 13 15 7 8 1020.3 1020.1 0.0
24/12:00am 18.6 17.8 13.9 74 2.7 SSW 11 11 6 6 1020.6 1020.4 0.0
 
Date/Time
EST
Temp
°C
App
Temp
°C
Dew
Point
°C
Rel
Hum
%
Delta-T
°C
Wind Press
QNH
hPa
Press
MSL
hPa
Rain since
9am
mm
Dir  Spd
km/h
Gust
km/h
Spd
kts
Gust
kts
23/11:30pm 18.9 18.5 14.0 73 2.8 SSW 9 11 5 6 1020.8 1020.6 0.0
23/11:00pm 19.8 19.0 14.0 69 3.3 SSW 11 15 6 8 1020.9 1020.7 0.0
23/10:30pm 20.9 20.0 14.8 68 3.6 S 13 17 7 9 1021.1 1020.9 0.0
23/10:00pm 21.5 20.5 14.6 65 4.0 SSE 13 17 7 9 1021.0 1020.8 0.0

Other formats

Comma delimited format used in spreadsheet applications
http://www.bom.gov.au/fwo/IDQ60801/IDQ60801.95482.axf

JavaScript Object Notation format (JSON) in row-major order
http://www.bom.gov.au/fwo/IDQ60801/IDQ60801.95482.json

Data quality

Most of these data are generated automatically and are frequently updated. Quality checks on data are not normally performed. It is possible for incorrect values to appear. Refer to information at About Latest Weather Observations and please check the disclaimer before using these data.